Time;durP1;ratioP1;P1;durP2;ratioP2;P2;SDS_P1;SDS_P2;PMS_P1;PMS_P2;Temp;Humidity;BMP_temperature;BMP_pressure;BME280_temperature;BME280_humidity;BME280_pressure;Samples;Min_cycle;Max_cycle;Signal;HPM_P1;HPM_P2
2021/12/04 00:02:25;;;;;;;3.90;2.70;;;2.80;99.90;;;;;;5145513;28;20455;-55
2021/12/04 00:04:53;;;;;;;3.70;2.77;;;2.80;99.90;;;;;;5145923;28;20539;-54
2021/12/04 00:07:21;;;;;;;3.77;3.20;;;2.80;99.90;;;;;;5145910;28;20511;-52
2021/12/04 00:09:51;;;;;;;4.77;2.50;;;2.80;99.90;;;;;;5146084;28;20440;-54
2021/12/04 00:12:19;;;;;;;11.10;3.30;;;2.80;99.90;;;;;;5146771;28;20461;-53
2021/12/04 00:14:46;;;;;;;5.80;3.20;;;2.80;99.90;;;;;;5147527;27;20447;-55
2021/12/04 00:17:13;;;;;;;5.87;3.20;;;2.80;99.90;;;;;;5151290;27;20483;-54
2021/12/04 00:19:42;;;;;;;5.33;3.20;;;2.80;99.90;;;;;;5150418;27;20916;-55
2021/12/04 00:22:10;;;;;;;4.33;2.63;;;2.80;99.90;;;;;;5150500;27;20431;-55
2021/12/04 00:24:37;;;;;;;5.30;3.27;;;2.80;99.90;;;;;;5150358;27;20468;-52
2021/12/04 00:27:06;;;;;;;7.70;3.50;;;2.80;99.90;;;;;;5150107;27;20432;-51
2021/12/04 00:29:32;;;;;;;3.73;3.07;;;2.90;99.90;;;;;;5150126;27;20466;-48
2021/12/04 00:32:02;;;;;;;6.30;3.40;;;2.90;99.90;;;;;;5151440;27;20443;-51
2021/12/04 00:34:31;;;;;;;4.93;2.70;;;2.90;99.90;;;;;;5150316;27;20450;-51
2021/12/04 00:37:13;;;;;;;5.77;3.90;;;2.90;99.90;;;;;;5149735;27;20511;-48
2021/12/04 00:50:38;;;;;;;3.90;2.70;;;2.90;99.90;;;;;;5149795;27;20855;-52
2021/12/04 00:53:05;;;;;;;4.77;3.33;;;2.90;99.90;;;;;;5148607;27;20497;-49
2021/12/04 00:55:32;;;;;;;2.40;2.20;;;2.90;99.90;;;;;;5147727;27;20954;-50
2021/12/04 00:58:00;;;;;;;3.97;3.33;;;2.90;99.90;;;;;;5149038;27;20457;-52
2021/12/04 01:00:27;;;;;;;2.90;2.13;;;2.90;99.90;;;;;;5148371;27;20447;-55
2021/12/04 01:02:54;;;;;;;6.93;3.80;;;2.90;99.90;;;;;;5148831;27;20468;-51
2021/12/04 01:05:21;;;;;;;7.80;3.77;;;2.90;99.90;;;;;;5148453;27;20467;-51
2021/12/04 01:07:47;;;;;;;5.30;3.20;;;3.00;99.90;;;;;;5147988;27;20450;-55
2021/12/04 01:10:14;;;;;;;5.47;3.57;;;3.00;99.90;;;;;;5149244;27;20439;-52
2021/12/04 01:12:42;;;;;;;5.00;3.23;;;3.00;99.90;;;;;;5149965;27;20456;-49
2021/12/04 01:15:12;;;;;;;5.77;5.17;;;2.90;99.90;;;;;;5149045;27;20467;-53
2021/12/04 01:17:39;;;;;;;5.17;2.63;;;3.00;99.90;;;;;;5149245;27;20463;-53
2021/12/04 01:20:06;;;;;;;5.13;3.87;;;3.00;99.90;;;;;;5148997;27;20444;-51
2021/12/04 01:22:35;;;;;;;9.37;3.10;;;3.10;99.90;;;;;;5150147;27;20455;-53
2021/12/04 01:25:03;;;;;;;5.10;2.70;;;3.10;99.90;;;;;;5150426;27;20440;-50
2021/12/04 01:27:30;;;;;;;4.90;3.27;;;3.10;99.90;;;;;;5149098;27;20436;-52
2021/12/04 01:29:56;;;;;;;4.13;3.10;;;3.10;99.90;;;;;;5149210;27;20471;-52
2021/12/04 01:32:24;;;;;;;10.53;2.70;;;3.10;99.90;;;;;;5149068;27;20516;-54
2021/12/04 01:34:51;;;;;;;5.20;3.90;;;3.10;99.90;;;;;;5149962;27;20957;-50
2021/12/04 01:37:18;;;;;;;4.70;4.03;;;3.10;99.90;;;;;;5149824;27;20483;-50
2021/12/04 01:39:46;;;;;;;5.83;3.63;;;3.10;99.90;;;;;;5149605;27;20452;-52
2021/12/04 01:42:12;;;;;;;7.40;3.20;;;3.00;99.90;;;;;;5149333;27;20471;-50
2021/12/04 01:44:39;;;;;;;4.70;3.20;;;3.00;99.90;;;;;;5149140;27;20428;-55
2021/12/04 01:47:13;;;;;;;6.47;3.50;;;3.00;99.90;;;;;;5149672;27;20448;-54
2021/12/04 01:49:42;;;;;;;5.63;3.80;;;3.00;99.90;;;;;;5148969;27;20428;-49
2021/12/04 01:52:09;;;;;;;5.20;3.47;;;3.00;99.90;;;;;;5147936;27;20439;-55
2021/12/04 01:54:36;;;;;;;6.50;4.20;;;3.10;99.90;;;;;;5147998;27;20206;-52
2021/12/04 01:57:03;;;;;;;5.80;4.07;;;3.20;99.90;;;;;;5147471;27;20490;-53
2021/12/04 01:59:30;;;;;;;5.87;3.57;;;3.20;99.90;;;;;;5148035;27;20202;-51
2021/12/04 02:01:57;;;;;;;7.83;4.53;;;3.20;99.90;;;;;;5148734;27;20428;-57
2021/12/04 02:04:23;;;;;;;5.10;3.13;;;3.20;99.90;;;;;;5150044;27;20436;-53
2021/12/04 02:06:52;;;;;;;6.10;3.00;;;3.20;99.90;;;;;;5149876;27;20481;-52
2021/12/04 02:09:18;;;;;;;5.80;3.70;;;3.10;99.90;;;;;;5148683;27;20443;-51
2021/12/04 02:11:45;;;;;;;5.30;3.10;;;3.10;99.90;;;;;;5148720;27;20481;-52
2021/12/04 02:14:13;;;;;;;6.57;4.50;;;3.20;99.90;;;;;;5148246;27;20440;-54
2021/12/04 02:16:40;;;;;;;7.63;3.70;;;3.20;99.90;;;;;;5149239;27;20509;-53
2021/12/04 02:19:07;;;;;;;3.80;2.63;;;3.20;99.90;;;;;;5148670;27;20440;-48
2021/12/04 02:21:35;;;;;;;6.47;3.93;;;3.20;99.90;;;;;;5150701;27;20469;-54
2021/12/04 02:24:02;;;;;;;3.83;3.37;;;3.20;99.90;;;;;;5147822;27;20471;-51
2021/12/04 02:26:28;;;;;;;7.73;3.90;;;3.10;99.90;;;;;;5147637;27;20444;-52
2021/12/04 02:28:57;;;;;;;5.73;3.93;;;3.10;99.90;;;;;;5147983;27;20443;-52
2021/12/04 02:31:24;;;;;;;4.77;3.37;;;3.10;99.90;;;;;;5148390;27;20884;-50
2021/12/04 02:33:52;;;;;;;4.80;3.13;;;3.10;99.90;;;;;;5148910;27;20440;-51
2021/12/04 02:36:19;;;;;;;8.20;3.40;;;3.10;99.90;;;;;;5148374;27;20487;-54
2021/12/04 02:38:51;;;;;;;11.80;4.50;;;3.10;99.90;;;;;;5147017;27;20452;-53
2021/12/04 02:41:18;;;;;;;3.30;2.63;;;3.00;99.90;;;;;;5148997;27;20467;-49
2021/12/04 02:43:46;;;;;;;4.67;2.93;;;3.00;99.90;;;;;;5148683;27;20435;-53
2021/12/04 02:46:13;;;;;;;4.90;3.87;;;3.00;99.90;;;;;;5147063;27;20451;-53
2021/12/04 02:48:41;;;;;;;5.67;3.07;;;3.00;99.90;;;;;;5146223;27;20464;-50
2021/12/04 02:51:08;;;;;;;3.80;3.40;;;3.10;99.90;;;;;;5146787;27;20436;-50
2021/12/04 02:53:35;;;;;;;9.43;4.33;;;3.10;99.90;;;;;;5146151;27;20447;-56
2021/12/04 02:56:05;;;;;;;6.40;3.93;;;3.20;99.90;;;;;;5146348;27;20479;-54
2021/12/04 02:58:32;;;;;;;7.32;3.15;;;3.10;99.90;;;;;;5145409;27;20499;-55
2021/12/04 03:00:59;;;;;;;5.03;3.70;;;3.20;99.90;;;;;;5144733;27;20244;-54
2021/12/04 03:03:26;;;;;;;5.10;3.53;;;3.20;99.90;;;;;;5144086;27;20804;-53
2021/12/04 03:05:53;;;;;;;5.93;3.67;;;3.30;99.90;;;;;;5145173;27;20440;-54
2021/12/04 03:08:20;;;;;;;4.53;3.10;;;3.30;99.90;;;;;;5145431;27;20443;-55
2021/12/04 03:10:48;;;;;;;6.47;3.87;;;3.30;99.90;;;;;;5144795;27;20469;-56
2021/12/04 03:13:18;;;;;;;4.67;3.37;;;3.30;99.90;;;;;;5143742;27;20468;-54
2021/12/04 03:15:47;;;;;;;4.57;3.73;;;3.40;99.90;;;;;;5143575;27;20944;-55
2021/12/04 03:18:14;;;;;;;6.73;4.67;;;3.40;99.90;;;;;;5143828;27;20532;-55
2021/12/04 03:20:43;;;;;;;7.93;3.90;;;3.30;99.90;;;;;;5143807;27;20443;-54
2021/12/04 03:23:15;;;;;;;7.83;2.60;;;3.40;99.90;;;;;;5144026;27;20443;-55
2021/12/04 03:25:46;;;;;;;5.30;3.77;;;3.40;99.90;;;;;;5144340;27;20503;-55
2021/12/04 03:28:15;;;;;;;6.80;4.13;;;3.40;99.90;;;;;;5144359;27;20428;-54
2021/12/04 03:30:47;;;;;;;9.97;4.20;;;3.40;99.90;;;;;;5143215;27;20467;-53
2021/12/04 03:41:27;;;;;;;5.70;3.03;;;3.30;99.90;;;;;;5145003;27;20449;-54
2021/12/04 03:43:53;;;;;;;3.37;2.80;;;3.30;99.90;;;;;;5144177;27;20520;-51
2021/12/04 03:46:21;;;;;;;5.53;4.37;;;3.20;99.90;;;;;;5143923;27;20900;-56
2021/12/04 03:48:51;;;;;;;10.13;4.87;;;3.20;99.90;;;;;;5143144;27;20460;-55
2021/12/04 03:51:19;;;;;;;5.97;4.10;;;3.20;99.90;;;;;;5144163;27;20424;-51
2021/12/04 03:53:49;;;;;;;6.73;3.77;;;3.30;99.90;;;;;;5144838;27;20221;-54
2021/12/04 03:56:20;;;;;;;8.60;4.60;;;3.30;99.90;;;;;;5144182;27;20486;-55
2021/12/04 03:58:47;;;;;;;7.27;4.87;;;3.30;99.90;;;;;;5144759;28;20434;-53
2021/12/04 04:01:14;;;;;;;6.23;3.47;;;3.30;99.90;;;;;;5143827;28;20464;-53
2021/12/04 04:03:42;;;;;;;11.60;4.63;;;3.40;99.90;;;;;;5143570;28;20425;-56
2021/12/04 04:06:09;;;;;;;10.77;3.70;;;3.40;99.90;;;;;;5143944;28;20452;-55
2021/12/04 04:08:35;;;;;;;7.80;3.97;;;3.40;99.90;;;;;;5143272;28;20455;-53
2021/12/04 04:11:02;;;;;;;4.97;3.78;;;3.40;99.90;;;;;;5143420;28;20474;-51
2021/12/04 04:13:29;;;;;;;7.50;3.17;;;3.40;99.90;;;;;;5142919;28;20225;-52
2021/12/04 04:15:56;;;;;;;5.63;4.00;;;3.50;99.90;;;;;;5143507;28;20443;-52
2021/12/04 04:18:24;;;;;;;5.10;3.50;;;3.40;99.90;;;;;;5143589;28;20490;-53
2021/12/04 04:20:52;;;;;;;6.23;3.80;;;3.50;99.90;;;;;;5143642;28;20443;-56
2021/12/04 04:23:21;;;;;;;6.70;4.17;;;3.50;99.90;;;;;;5143761;28;20504;-51
2021/12/04 04:25:47;;;;;;;8.47;3.50;;;3.50;99.90;;;;;;5143371;28;20467;-56
2021/12/04 04:28:14;;;;;;;6.30;3.80;;;3.50;99.90;;;;;;5143378;27;20517;-56
2021/12/04 04:30:41;;;;;;;4.87;4.00;;;3.50;99.90;;;;;;5143541;28;20476;-54
2021/12/04 04:33:11;;;;;;;6.63;4.10;;;3.50;99.90;;;;;;5143633;28;21051;-51
2021/12/04 04:35:37;;;;;;;7.50;4.27;;;3.50;99.90;;;;;;5143287;27;20444;-55
2021/12/04 04:38:16;;;;;;;7.60;4.32;;;3.50;99.90;;;;;;5143061;28;20483;-52
2021/12/04 05:00:22;;;;;;;4.57;3.00;;;3.40;99.90;;;;;;5061697;28;20434;-54
2021/12/04 05:11:15;;;;;;;8.25;5.07;;;3.40;99.90;;;;;;5147873;27;20895;-53
2021/12/04 05:13:42;;;;;;;4.70;3.57;;;3.40;99.90;;;;;;5147586;27;20253;-54
2021/12/04 05:16:13;;;;;;;5.20;3.27;;;3.40;99.90;;;;;;5147437;27;20445;-54
2021/12/04 05:18:45;;;;;;;8.23;3.95;;;3.40;99.90;;;;;;5147307;27;20428;-55
2021/12/04 05:21:13;;;;;;;3.93;3.40;;;3.40;99.90;;;;;;5146374;27;20178;-54
2021/12/04 05:23:43;;;;;;;7.57;4.78;;;3.40;99.90;;;;;;5147018;27;20774;-55
2021/12/04 05:26:17;;;;;;;8.80;4.57;;;3.50;99.90;;;;;;5147799;27;20237;-54
2021/12/04 05:28:44;;;;;;;6.23;4.03;;;3.50;99.90;;;;;;5147934;27;20424;-47
2021/12/04 05:31:11;;;;;;;5.93;4.53;;;3.40;99.90;;;;;;5147664;27;20444;-52
2021/12/04 05:33:39;;;;;;;7.30;4.65;;;3.40;99.90;;;;;;5147105;27;20972;-52
2021/12/04 05:36:06;;;;;;;5.60;3.55;;;3.40;99.90;;;;;;5147059;27;20202;-53
2021/12/04 05:38:33;;;;;;;5.47;4.10;;;3.50;99.90;;;;;;5147191;27;20234;-55
2021/12/04 05:41:00;;;;;;;7.17;4.10;;;3.50;99.90;;;;;;5146925;27;20447;-53
2021/12/04 05:43:28;;;;;;;5.67;4.13;;;3.40;99.90;;;;;;5145863;27;20888;-53
2021/12/04 05:46:01;;;;;;;7.43;3.73;;;3.40;99.90;;;;;;5146338;27;20457;-53
2021/12/04 05:48:33;;;;;;;5.07;2.93;;;3.30;99.90;;;;;;5146588;27;20420;-53
2021/12/04 05:54:04;;;;;;;5.70;3.60;;;3.30;99.90;;;;;;5101055;28;20517;-55
2021/12/04 05:56:33;;;;;;;5.43;3.80;;;3.30;99.90;;;;;;5100689;28;20500;-51
2021/12/04 05:59:01;;;;;;;6.20;3.17;;;3.30;99.90;;;;;;5099854;28;20511;-51
2021/12/04 06:01:29;;;;;;;6.20;4.00;;;3.20;99.90;;;;;;5099697;28;20448;-54
2021/12/04 06:03:56;;;;;;;8.00;3.80;;;3.20;99.90;;;;;;5100509;28;20483;-51
2021/12/04 06:06:23;;;;;;;5.73;4.27;;;3.20;99.90;;;;;;5101139;28;20461;-53
2021/12/04 06:08:49;;;;;;;4.10;3.40;;;3.20;99.90;;;;;;5100723;28;20531;-53
2021/12/04 06:11:30;;;;;;;7.33;3.70;;;3.20;99.90;;;;;;5100656;28;20502;-55
2021/12/04 06:13:56;;;;;;;4.80;3.43;;;3.30;99.90;;;;;;5099455;28;20537;-55
2021/12/04 06:16:23;;;;;;;5.37;3.33;;;3.20;99.90;;;;;;5100303;28;20481;-54
2021/12/04 06:18:53;;;;;;;5.37;3.27;;;3.20;99.90;;;;;;5100433;28;20468;-55
2021/12/04 06:24:05;;;;;;;6.10;4.30;;;3.20;99.90;;;;;;5100691;28;20421;-52
2021/12/04 06:26:34;;;;;;;6.37;3.47;;;3.20;99.90;;;;;;5100120;28;20929;-52
2021/12/04 06:29:01;;;;;;;8.73;5.10;;;3.20;99.90;;;;;;5099305;28;20430;-51
2021/12/04 06:31:29;;;;;;;7.70;3.87;;;3.20;99.90;;;;;;5098814;28;20464;-52
2021/12/04 06:33:56;;;;;;;6.00;3.30;;;3.20;99.90;;;;;;5099102;28;20470;-54
2021/12/04 06:36:25;;;;;;;5.30;3.70;;;3.20;99.90;;;;;;5099029;28;20590;-56
2021/12/04 06:38:52;;;;;;;8.70;3.70;;;3.30;99.90;;;;;;5099827;28;20488;-54
2021/12/04 06:41:19;;;;;;;4.83;3.27;;;3.20;99.90;;;;;;5100712;28;20517;-55
2021/12/04 06:43:49;;;;;;;9.30;4.63;;;3.20;99.90;;;;;;5100848;28;20464;-54
2021/12/04 06:46:17;;;;;;;4.80;3.23;;;3.20;99.90;;;;;;5100234;28;20446;-55
2021/12/04 06:48:51;;;;;;;4.93;3.40;;;3.20;99.90;;;;;;5100354;28;20944;-54
2021/12/04 06:51:24;;;;;;;8.10;4.20;;;3.20;99.90;;;;;;5100263;28;20553;-56
2021/12/04 06:53:56;;;;;;;6.90;3.77;;;3.20;99.90;;;;;;5099016;28;20497;-53
2021/12/04 06:56:24;;;;;;;5.03;3.00;;;3.20;99.90;;;;;;5098418;28;20445;-56
2021/12/04 06:58:53;;;;;;;5.10;2.87;;;3.20;99.90;;;;;;5099272;28;20457;-55
2021/12/04 07:01:20;;;;;;;4.67;2.90;;;3.20;99.90;;;;;;5099052;28;20446;-55
2021/12/04 07:03:47;;;;;;;10.60;3.97;;;3.10;99.90;;;;;;5093231;28;20467;-56
2021/12/04 07:06:14;;;;;;;4.53;3.23;;;3.10;99.90;;;;;;5085758;28;20518;-54
2021/12/04 07:08:41;;;;;;;6.17;5.27;;;3.20;99.90;;;;;;5086289;28;20500;-55
2021/12/04 07:11:08;;;;;;;5.60;3.00;;;3.20;99.90;;;;;;5086637;28;20795;-50
2021/12/04 07:13:35;;;;;;;6.20;3.43;;;3.20;99.90;;;;;;5086294;28;20474;-49
2021/12/04 07:16:06;;;;;;;4.40;3.50;;;3.20;99.90;;;;;;5086637;28;20474;-55
2021/12/04 07:18:34;;;;;;;7.93;4.00;;;3.20;99.90;;;;;;5090030;28;20433;-48
2021/12/04 07:21:01;;;;;;;6.83;2.70;;;3.20;99.90;;;;;;5085354;28;20450;-50
2021/12/04 07:23:28;;;;;;;5.37;3.03;;;3.20;99.90;;;;;;5096819;28;20439;-54
2021/12/04 07:25:55;;;;;;;14.47;3.80;;;3.30;99.90;;;;;;5094487;28;20450;-55
2021/12/04 07:28:24;;;;;;;4.23;2.70;;;3.30;99.90;;;;;;5095239;28;20477;-56
2021/12/04 07:30:51;;;;;;;7.20;3.40;;;3.30;99.90;;;;;;5094705;28;20466;-52
2021/12/04 07:33:19;;;;;;;3.30;3.00;;;3.30;99.90;;;;;;5094153;28;20501;-54
2021/12/04 07:35:48;;;;;;;5.10;3.33;;;3.40;99.90;;;;;;5095149;28;20427;-49
2021/12/04 07:38:15;;;;;;;5.17;3.33;;;3.40;99.90;;;;;;5093890;28;20455;-55
2021/12/04 07:40:43;;;;;;;4.10;3.67;;;3.40;99.90;;;;;;5093250;28;20534;-55
2021/12/04 07:43:10;;;;;;;7.20;3.90;;;3.50;99.90;;;;;;5093388;28;20438;-54
2021/12/04 07:45:37;;;;;;;17.03;3.93;;;3.50;99.90;;;;;;5093351;28;20501;-51
2021/12/04 07:48:04;;;;;;;5.87;3.20;;;3.50;99.90;;;;;;5093136;28;20854;-57
2021/12/04 07:50:33;;;;;;;7.70;3.80;;;3.50;99.90;;;;;;5093329;28;20477;-54
2021/12/04 07:53:00;;;;;;;9.37;4.60;;;3.50;99.90;;;;;;5092583;28;20517;-53
2021/12/04 07:55:28;;;;;;;5.03;3.53;;;3.60;99.90;;;;;;5092093;28;20438;-53
2021/12/04 07:57:55;;;;;;;4.87;3.30;;;3.60;99.90;;;;;;5092785;28;20485;-49
2021/12/04 08:00:23;;;;;;;4.55;2.88;;;3.60;99.90;;;;;;5092461;28;20439;-54
2021/12/04 08:02:51;;;;;;;4.07;2.80;;;3.70;99.90;;;;;;5092756;28;20208;-52
2021/12/04 08:05:19;;;;;;;5.27;3.40;;;3.80;99.90;;;;;;5091642;28;20471;-53
2021/12/04 08:07:47;;;;;;;5.17;2.90;;;3.70;99.90;;;;;;5091257;28;20451;-51
2021/12/04 08:10:17;;;;;;;5.00;3.37;;;3.80;99.90;;;;;;5090600;28;20459;-51
2021/12/04 08:12:44;;;;;;;7.60;4.00;;;3.80;99.90;;;;;;5089695;28;20508;-57
2021/12/04 08:15:13;;;;;;;5.30;3.87;;;3.80;99.90;;;;;;5088741;28;20845;-53
2021/12/04 08:17:42;;;;;;;5.17;3.13;;;3.80;99.90;;;;;;5073283;28;20451;-52
2021/12/04 08:20:10;;;;;;;6.80;3.33;;;3.80;99.90;;;;;;5089832;28;20761;-48
2021/12/04 08:22:37;;;;;;;4.67;3.40;;;3.80;99.90;;;;;;5090713;28;20451;-51
2021/12/04 08:25:07;;;;;;;5.33;3.87;;;3.80;99.90;;;;;;5089809;28;20442;-53
2021/12/04 08:27:34;;;;;;;6.30;3.83;;;3.80;99.90;;;;;;5090866;28;20451;-55
2021/12/04 08:30:01;;;;;;;5.70;3.30;;;3.80;99.90;;;;;;5090980;28;20453;-52
2021/12/04 08:32:28;;;;;;;5.80;3.17;;;3.80;99.90;;;;;;5091254;28;21079;-51
2021/12/04 08:34:56;;;;;;;6.13;3.30;;;3.80;99.90;;;;;;5091062;28;20918;-51
2021/12/04 08:37:23;;;;;;;5.60;4.37;;;3.80;99.90;;;;;;5089807;28;20443;-52
2021/12/04 08:39:50;;;;;;;5.63;3.63;;;3.80;99.90;;;;;;5090380;28;20465;-52
2021/12/04 08:42:19;;;;;;;6.23;3.47;;;3.80;99.90;;;;;;5091434;28;20435;-50
2021/12/04 08:44:47;;;;;;;4.53;3.40;;;3.80;99.90;;;;;;5075200;28;20445;-53
2021/12/04 08:47:15;;;;;;;4.83;3.00;;;3.80;99.90;;;;;;5088608;28;20459;-51
2021/12/04 08:49:44;;;;;;;10.47;3.20;;;3.80;99.90;;;;;;5082454;28;20455;-53
2021/12/04 08:52:16;;;;;;;6.53;2.97;;;3.80;99.90;;;;;;5083273;28;20446;-53
2021/12/04 08:54:44;;;;;;;8.97;3.30;;;3.80;99.90;;;;;;5085217;28;20479;-51
2021/12/04 08:57:11;;;;;;;6.20;3.67;;;3.90;99.90;;;;;;5090768;28;20445;-51
2021/12/04 08:59:41;;;;;;;5.40;3.40;;;3.90;99.90;;;;;;5089525;28;20478;-53
2021/12/04 09:02:10;;;;;;;4.43;3.30;;;3.90;99.90;;;;;;5086643;28;20435;-52
2021/12/04 09:04:37;;;;;;;7.03;4.50;;;4.00;99.90;;;;;;5082666;28;20497;-53
2021/12/04 09:07:07;;;;;;;4.97;3.57;;;4.00;99.90;;;;;;5081885;28;20787;-54
2021/12/04 09:09:34;;;;;;;5.80;3.40;;;4.00;99.90;;;;;;5081884;28;20447;-56
2021/12/04 09:12:05;;;;;;;4.87;3.17;;;3.90;99.90;;;;;;5081372;28;20527;-56
2021/12/04 09:14:38;;;;;;;5.97;3.03;;;3.90;99.90;;;;;;5081180;28;20490;-54
2021/12/04 09:17:09;;;;;;;3.97;3.20;;;3.90;99.90;;;;;;5080960;28;20463;-56
2021/12/04 09:19:36;;;;;;;7.43;3.27;;;3.90;99.90;;;;;;5080658;28;20883;-55
2021/12/04 09:22:06;;;;;;;5.53;2.83;;;4.00;99.90;;;;;;5081127;28;20459;-53
2021/12/04 09:24:39;;;;;;;6.57;4.13;;;4.00;99.90;;;;;;5080968;28;20443;-53
2021/12/04 09:27:12;;;;;;;6.07;3.30;;;3.90;99.90;;;;;;5088432;28;20503;-53
2021/12/04 09:30:03;;;;;;;4.83;3.57;;;3.90;99.90;;;;;;5089410;28;20459;-52
2021/12/04 09:32:54;;;;;;;7.20;3.73;;;3.90;99.90;;;;;;5089686;28;20442;-49
2021/12/04 10:00:29;;;;;;;12.30;6.07;;;4.00;99.90;;;;;;5093513;28;20490;-53
2021/12/04 10:03:18;;;;;;;8.97;5.50;;;4.90;99.90;;;;;;5093745;28;20442;-51
2021/12/04 10:06:18;;;;;;;5.57;4.00;;;5.00;99.90;;;;;;5092983;28;20996;-50
2021/12/04 10:11:56;;;;;;;4.43;3.23;;;4.50;99.90;;;;;;5088875;28;20434;-55
2021/12/04 10:34:25;;;;;;;5.93;3.27;;;3.90;99.90;;;;;;5092706;28;20515;-60
2021/12/04 10:36:52;;;;;;;5.20;3.67;;;3.90;99.90;;;;;;5093275;28;20459;-58
2021/12/04 10:39:21;;;;;;;10.47;3.90;;;3.90;99.90;;;;;;5094246;28;20450;-60
2021/12/04 10:41:49;;;;;;;8.50;4.57;;;3.80;99.90;;;;;;5096804;28;20466;-59
2021/12/04 10:44:20;;;;;;;7.90;4.67;;;3.90;99.90;;;;;;5095816;28;20533;-58
2021/12/04 10:46:59;;;;;;;6.97;3.90;;;3.90;99.90;;;;;;5095556;28;20453;-60
2021/12/04 10:52:24;;;;;;;7.33;4.20;;;3.90;99.90;;;;;;5095784;28;20461;-59
2021/12/04 10:55:10;;;;;;;6.10;4.37;;;3.90;99.90;;;;;;5095663;28;20486;-60
2021/12/04 10:58:06;;;;;;;8.20;4.40;;;4.00;99.90;;;;;;5095477;28;20419;-60
2021/12/04 11:00:39;;;;;;;8.60;4.97;;;4.00;99.90;;;;;;5096406;28;20486;-59
2021/12/04 11:03:23;;;;;;;9.93;4.27;;;4.10;99.90;;;;;;5095704;28;20467;-57
2021/12/04 11:43:10;;;;;;;8.70;5.00;;;4.20;99.90;;;;;;5072198;28;20431;-54
2021/12/04 11:45:45;;;;;;;9.90;5.53;;;4.20;99.90;;;;;;5106248;28;20459;-62
2021/12/04 11:48:13;;;;;;;11.53;5.20;;;4.20;99.90;;;;;;5105621;27;20466;-60
2021/12/04 11:50:41;;;;;;;10.90;4.90;;;4.20;99.90;;;;;;5105861;28;20460;-60
2021/12/04 11:53:11;;;;;;;12.33;6.03;;;4.30;99.90;;;;;;5105701;28;20514;-61
2021/12/04 11:55:42;;;;;;;7.53;4.27;;;4.30;99.90;;;;;;5106234;28;20533;-59
2021/12/04 11:58:20;;;;;;;12.03;6.33;;;4.20;99.90;;;;;;5105704;28;20458;-61
2021/12/04 12:00:48;;;;;;;9.73;5.63;;;4.20;99.90;;;;;;5105504;28;20414;-60
2021/12/04 12:03:16;;;;;;;12.03;4.93;;;4.20;99.90;;;;;;5106360;27;20199;-61
2021/12/04 12:05:46;;;;;;;9.97;5.03;;;4.30;99.90;;;;;;5106262;28;20492;-60
2021/12/04 12:08:25;;;;;;;9.70;5.80;;;4.30;99.90;;;;;;5105411;28;20492;-60
2021/12/04 12:10:54;;;;;;;6.53;4.00;;;4.40;99.90;;;;;;5105372;28;20472;-57
2021/12/04 12:13:33;;;;;;;8.47;4.50;;;4.30;99.90;;;;;;5106283;28;20561;-61
2021/12/04 12:16:08;;;;;;;8.37;4.50;;;4.30;99.90;;;;;;5106299;28;20468;-62
2021/12/04 12:18:52;;;;;;;5.80;3.90;;;4.20;99.90;;;;;;5103261;28;20423;-61
2021/12/04 12:21:23;;;;;;;7.47;4.93;;;4.10;99.90;;;;;;5092354;28;20446;-59
2021/12/04 12:27:00;;;;;;;9.40;5.00;;;4.10;99.90;;;;;;5092513;28;20499;-59
2021/12/04 12:38:08;;;;;;;8.30;5.70;;;4.20;99.90;;;;;;5091602;28;20468;-61
2021/12/04 12:40:36;;;;;;;8.57;6.00;;;4.30;99.90;;;;;;5091552;28;20451;-60
2021/12/04 12:43:17;;;;;;;8.07;5.23;;;4.30;99.90;;;;;;5091156;28;20455;-61
2021/12/04 12:45:55;;;;;;;11.53;5.37;;;4.30;99.90;;;;;;5091071;28;20479;-61
2021/12/04 12:48:22;;;;;;;7.13;4.10;;;4.30;99.90;;;;;;5090827;28;20534;-61
2021/12/04 12:50:49;;;;;;;8.23;4.27;;;4.30;99.90;;;;;;5091399;28;20463;-61
2021/12/04 12:53:19;;;;;;;11.00;5.17;;;4.40;99.90;;;;;;5091812;28;20466;-60
2021/12/04 12:55:50;;;;;;;4.67;3.60;;;4.30;99.90;;;;;;5090774;28;20492;-59
2021/12/04 12:58:20;;;;;;;3.60;2.87;;;4.30;99.90;;;;;;5091170;27;20443;-60
2021/12/04 13:11:57;;;;;;;7.00;3.63;;;4.20;99.90;;;;;;5091332;28;20472;-59
2021/12/04 13:14:27;;;;;;;7.07;3.80;;;4.30;99.90;;;;;;5091257;28;20455;-61
2021/12/04 13:17:04;;;;;;;6.23;3.90;;;4.30;99.90;;;;;;5091233;28;20449;-61
2021/12/04 13:19:34;;;;;;;7.50;3.87;;;4.30;99.90;;;;;;5090885;28;20431;-60
2021/12/04 13:22:04;;;;;;;11.23;4.70;;;4.40;99.90;;;;;;5090880;28;20467;-61
2021/12/04 13:24:34;;;;;;;7.83;5.37;;;4.30;99.90;;;;;;5091077;28;20446;-60
2021/12/04 13:29:40;;;;;;;6.17;4.27;;;4.40;99.90;;;;;;5090434;28;20394;-60
2021/12/04 13:32:09;;;;;;;7.60;4.30;;;4.40;99.90;;;;;;5089271;28;20463;-62
2021/12/04 13:34:42;;;;;;;8.77;4.47;;;4.40;99.90;;;;;;5090414;28;20492;-59
2021/12/04 13:37:11;;;;;;;7.30;4.93;;;4.40;99.90;;;;;;5090065;28;20857;-59
2021/12/04 13:39:41;;;;;;;11.13;5.70;;;4.40;99.90;;;;;;5090303;28;20473;-61
2021/12/04 13:42:08;;;;;;;8.13;4.50;;;4.40;99.90;;;;;;5090818;28;20460;-61
2021/12/04 13:44:36;;;;;;;7.93;4.47;;;4.50;99.90;;;;;;5089999;28;20462;-62
2021/12/04 13:47:05;;;;;;;8.77;6.27;;;4.50;99.90;;;;;;5090821;28;20494;-59
2021/12/04 13:49:36;;;;;;;10.03;5.57;;;4.50;99.90;;;;;;5089623;28;20534;-61
2021/12/04 13:52:07;;;;;;;12.67;6.87;;;4.50;99.90;;;;;;5090222;28;20451;-60
2021/12/04 13:54:37;;;;;;;7.60;5.10;;;4.50;99.90;;;;;;5090400;28;20438;-59
2021/12/04 13:57:10;;;;;;;8.83;5.50;;;4.50;99.90;;;;;;5089952;28;20471;-61
2021/12/04 13:59:37;;;;;;;11.23;5.83;;;4.50;99.90;;;;;;5090472;28;20527;-57
2021/12/04 14:02:04;;;;;;;13.87;6.93;;;4.50;99.90;;;;;;5089831;28;20445;-59
2021/12/04 14:04:32;;;;;;;10.67;6.73;;;4.40;99.90;;;;;;5090321;28;20507;-60
2021/12/04 14:07:01;;;;;;;16.10;7.70;;;4.40;99.90;;;;;;5089367;28;20451;-57
2021/12/04 14:09:34;;;;;;;14.97;6.80;;;4.40;99.90;;;;;;5089076;28;20574;-59
2021/12/04 14:12:02;;;;;;;10.13;6.37;;;4.40;99.90;;;;;;5089313;28;20439;-59
2021/12/04 14:14:31;;;;;;;10.33;6.27;;;4.50;99.90;;;;;;5088628;28;20458;-62
2021/12/04 14:17:06;;;;;;;8.90;5.97;;;4.50;99.90;;;;;;5088594;28;20439;-61
2021/12/04 14:19:35;;;;;;;12.13;6.40;;;4.50;99.90;;;;;;5088251;28;20455;-66
2021/12/04 14:22:05;;;;;;;11.50;5.97;;;4.50;99.90;;;;;;5088278;28;20467;-61
2021/12/04 14:24:37;;;;;;;12.83;7.70;;;4.50;99.90;;;;;;5088769;28;20443;-58
2021/12/04 14:27:06;;;;;;;15.30;7.90;;;4.50;99.90;;;;;;5089617;28;20467;-59
2021/12/04 14:29:35;;;;;;;15.60;8.60;;;4.50;99.90;;;;;;5088669;28;20481;-62
2021/12/04 14:32:02;;;;;;;13.63;7.60;;;4.50;99.90;;;;;;5089255;27;20494;-60
2021/12/04 14:34:30;;;;;;;17.60;8.60;;;4.50;99.90;;;;;;5089371;28;20470;-60
2021/12/04 14:37:03;;;;;;;22.43;8.23;;;4.50;99.90;;;;;;5090330;28;20447;-61
2021/12/04 14:39:31;;;;;;;11.20;6.87;;;4.50;99.90;;;;;;5089396;28;20455;-59
2021/12/04 14:41:59;;;;;;;15.03;7.80;;;4.50;99.90;;;;;;5088932;28;20450;-60
2021/12/04 14:44:26;;;;;;;15.10;8.33;;;4.50;99.90;;;;;;5089286;28;20466;-62
2021/12/04 14:46:54;;;;;;;18.97;9.17;;;4.50;99.90;;;;;;5089414;28;20455;-61
2021/12/04 14:49:21;;;;;;;9.70;5.83;;;4.50;99.90;;;;;;5089942;28;20489;-61
2021/12/04 14:51:49;;;;;;;15.23;8.27;;;4.50;99.90;;;;;;5089761;28;20467;-59
2021/12/04 14:54:26;;;;;;;12.07;6.63;;;4.50;99.90;;;;;;5089646;28;20435;-63
2021/12/04 14:56:53;;;;;;;11.13;7.30;;;4.50;99.90;;;;;;5089212;28;20435;-56
2021/12/04 14:59:21;;;;;;;9.40;6.17;;;4.40;99.90;;;;;;5089017;28;20427;-60
2021/12/04 15:01:48;;;;;;;19.83;8.13;;;4.40;99.90;;;;;;5089695;28;20523;-61
2021/12/04 15:04:15;;;;;;;17.97;7.67;;;4.40;99.90;;;;;;5089073;28;20467;-60
2021/12/04 15:06:42;;;;;;;12.60;7.97;;;4.40;99.90;;;;;;5089520;28;20472;-60
2021/12/04 15:09:13;;;;;;;11.43;7.27;;;4.40;99.90;;;;;;5088937;28;20494;-60
2021/12/04 15:11:42;;;;;;;12.80;6.60;;;4.40;99.90;;;;;;5089263;28;20458;-58
2021/12/04 15:14:13;;;;;;;12.07;7.17;;;4.40;99.90;;;;;;5089567;28;20454;-63
2021/12/04 15:16:47;;;;;;;14.00;7.47;;;4.30;99.90;;;;;;5089864;28;20958;-57
2021/12/04 15:19:19;;;;;;;19.57;7.97;;;4.30;99.90;;;;;;5089884;28;20411;-61
2021/12/04 15:21:50;;;;;;;13.53;7.37;;;4.40;99.90;;;;;;5089114;28;20466;-60
2021/12/04 15:24:23;;;;;;;14.73;8.30;;;4.40;99.90;;;;;;5089282;28;20447;-62
2021/12/04 15:26:52;;;;;;;12.37;7.37;;;4.40;99.90;;;;;;5089910;28;20423;-62
2021/12/04 15:29:21;;;;;;;7.87;5.20;;;4.40;99.90;;;;;;5089051;28;20566;-60
2021/12/04 15:31:50;;;;;;;14.57;7.03;;;4.30;99.90;;;;;;5089822;28;20453;-61
2021/12/04 15:34:28;;;;;;;9.20;6.17;;;4.30;99.90;;;;;;5088740;28;20467;-61
2021/12/04 15:37:03;;;;;;;10.20;5.50;;;4.30;99.90;;;;;;5089547;28;20435;-56
2021/12/04 15:39:35;;;;;;;11.40;7.13;;;4.20;99.90;;;;;;5089098;28;20495;-62
2021/12/04 15:45:08;;;;;;;16.33;7.20;;;4.00;99.90;;;;;;5085949;28;20435;-63
2021/12/04 15:47:40;;;;;;;17.47;8.03;;;4.00;99.90;;;;;;5089554;28;20451;-60
2021/12/04 15:53:04;;;;;;;12.10;6.53;;;3.90;99.90;;;;;;5090675;28;20472;-59
2021/12/04 15:55:37;;;;;;;8.00;5.53;;;3.90;99.90;;;;;;5093635;28;20430;-58
2021/12/04 15:58:07;;;;;;;7.53;5.13;;;3.90;99.90;;;;;;5093752;28;21079;-61
2021/12/04 16:00:37;;;;;;;10.80;7.70;;;3.90;99.90;;;;;;5093012;28;20426;-60